createdAt,value
2023-02-28T00:03:06.101Z,12.83
2023-02-28T00:08:28.869Z,12.20
2023-02-28T00:13:54.302Z,11.77
2023-02-28T00:19:16.729Z,11.47
2023-02-28T00:24:39.038Z,11.90
2023-02-28T00:30:02.361Z,12.70
2023-02-28T00:35:26.436Z,14.30
2023-02-28T00:40:49.225Z,14.43
2023-02-28T00:46:12.003Z,14.83
2023-02-28T00:51:34.316Z,12.20
2023-02-28T00:56:56.588Z,13.80
2023-02-28T01:02:19.856Z,13.67
2023-02-28T01:07:42.897Z,13.83
2023-02-28T01:13:05.203Z,16.30
2023-02-28T01:18:28.333Z,14.33
2023-02-28T01:23:50.644Z,13.93
2023-02-28T01:29:13.605Z,16.27
2023-02-28T01:34:35.877Z,14.70
2023-02-28T01:39:58.141Z,14.97
2023-02-28T01:45:36.437Z,16.13
2023-02-28T01:51:02.705Z,15.60
2023-02-28T01:56:30.178Z,16.07
2023-02-28T02:01:53.027Z,15.90
2023-02-28T02:07:15.453Z,15.93
2023-02-28T02:13:16.956Z,15.30
2023-02-28T02:18:51.755Z,16.30
2023-02-28T02:24:42.670Z,15.77
2023-02-28T02:30:24.702Z,17.00
2023-02-28T02:36:13.236Z,16.83
2023-02-28T02:41:54.731Z,15.43
2023-02-28T02:47:27.179Z,15.80
2023-02-28T02:52:54.264Z,17.33
2023-02-28T02:58:23.863Z,17.20
2023-02-28T03:03:48.051Z,16.10
2023-02-28T03:09:10.633Z,15.87
2023-02-28T03:15:01.484Z,16.27
2023-02-28T03:20:36.970Z,16.30
2023-02-28T03:26:22.508Z,16.93
2023-02-28T03:32:01.825Z,16.00
2023-02-28T03:37:28.487Z,15.77
2023-02-28T03:42:54.400Z,16.43
2023-02-28T03:48:24.436Z,16.23
2023-02-28T03:53:54.366Z,15.57
2023-02-28T03:59:40.104Z,15.83
2023-02-28T04:05:02.337Z,17.17
2023-02-28T04:10:25.472Z,16.62
2023-02-28T04:15:47.674Z,16.85
2023-02-28T04:21:11.803Z,16.57
2023-02-28T04:26:38.697Z,16.87
2023-02-28T04:32:01.940Z,16.90
2023-02-28T04:37:26.417Z,16.07
2023-02-28T04:42:48.829Z,15.73
2023-02-28T04:48:11.130Z,15.43
2023-02-28T04:53:33.688Z,16.17
2023-02-28T04:58:56.057Z,14.73
2023-02-28T05:04:19.526Z,14.07
2023-02-28T05:09:41.854Z,14.77
2023-02-28T05:15:04.075Z,15.17
2023-02-28T05:20:27.025Z,15.87
2023-02-28T05:25:49.251Z,13.30
2023-02-28T05:31:12.046Z,14.47
2023-02-28T05:36:34.497Z,13.63
2023-02-28T05:41:57.462Z,13.97
2023-02-28T05:47:19.686Z,14.33
2023-02-28T05:52:42.778Z,13.00
2023-02-28T05:58:05.133Z,14.67
2023-02-28T06:03:27.610Z,14.17
2023-02-28T06:08:49.965Z,14.27
2023-02-28T06:14:23.524Z,13.90
2023-02-28T06:19:46.001Z,13.77
2023-02-28T06:25:08.520Z,14.03
2023-02-28T06:36:05.608Z,12.40
2023-02-28T06:41:32.714Z,13.43
2023-02-28T06:46:54.768Z,14.77
2023-02-28T06:52:17.033Z,13.77
2023-02-28T06:57:44.239Z,15.33
2023-02-28T07:03:06.943Z,15.73
2023-02-28T07:08:30.030Z,16.10
2023-02-28T07:13:52.281Z,17.03
2023-02-28T07:19:14.901Z,18.17
2023-02-28T07:24:37.622Z,19.00
2023-02-28T07:30:02.058Z,20.60
2023-02-28T07:35:25.788Z,20.20
2023-02-28T07:40:49.736Z,20.40
2023-02-28T07:46:17.202Z,19.80
2023-02-28T07:51:40.799Z,20.70
2023-02-28T07:57:03.559Z,20.97
2023-02-28T08:02:29.737Z,19.63
2023-02-28T08:07:51.969Z,20.73
2023-02-28T08:13:14.612Z,21.10
2023-02-28T08:18:37.434Z,22.80
2023-02-28T08:24:03.646Z,22.27
2023-02-28T08:29:25.863Z,23.63
2023-02-28T08:34:48.293Z,23.60
2023-02-28T08:40:10.787Z,22.20
2023-02-28T08:45:37.188Z,22.20
2023-02-28T08:51:07.565Z,21.97
2023-02-28T08:56:30.592Z,17.10
2023-02-28T09:01:52.765Z,18.13
2023-02-28T09:07:17.407Z,23.07
2023-02-28T09:12:43.218Z,14.33
2023-02-28T09:18:05.528Z,14.07
2023-02-28T09:23:29.397Z,13.87
2023-02-28T09:28:52.577Z,12.90
2023-02-28T09:34:18.953Z,12.17
2023-02-28T09:39:42.215Z,12.28
2023-02-28T09:45:07.204Z,13.50
2023-02-28T09:50:43.388Z,11.93
2023-02-28T09:56:27.150Z,11.53
2023-02-28T10:02:15.143Z,14.23
2023-02-28T10:07:50.846Z,11.03
2023-02-28T10:13:21.888Z,11.97
2023-02-28T10:18:49.073Z,10.53
2023-02-28T10:24:22.086Z,10.37
2023-02-28T10:29:45.842Z,8.53
2023-02-28T10:35:31.226Z,6.50
2023-02-28T10:40:54.674Z,6.03
2023-02-28T10:46:32.743Z,5.40
2023-02-28T10:52:02.094Z,5.92
2023-02-28T10:57:30.857Z,4.87
2023-02-28T11:02:54.929Z,7.00
2023-02-28T11:08:21.783Z,5.83
2023-02-28T11:13:52.129Z,6.08
2023-02-28T11:19:17.504Z,6.93
2023-02-28T11:24:49.837Z,5.72
2023-02-28T11:30:13.228Z,5.72
2023-02-28T11:35:46.329Z,5.83
2023-02-28T11:41:25.421Z,6.15
2023-02-28T11:46:58.121Z,6.80
2023-02-28T11:52:49.655Z,6.65
2023-02-28T11:58:25.648Z,7.53
2023-02-28T12:03:58.720Z,6.70
2023-02-28T12:09:38.339Z,6.90
2023-02-28T12:15:43.182Z,7.10
2023-02-28T12:21:43.390Z,6.17
2023-02-28T12:27:09.012Z,6.17
2023-02-28T12:32:54.590Z,5.08
2023-02-28T12:38:27.535Z,4.40
2023-02-28T12:43:57.564Z,4.55
2023-02-28T12:49:39.978Z,4.22
2023-02-28T12:55:10.620Z,4.17
2023-02-28T13:00:43.538Z,4.15
2023-02-28T13:06:33.757Z,3.85
2023-02-28T13:12:06.332Z,4.07
2023-02-28T13:17:35.370Z,4.12
2023-02-28T13:23:06.980Z,3.33
2023-02-28T13:28:49.802Z,4.15
2023-02-28T13:34:22.606Z,4.10
2023-02-28T13:40:01.240Z,4.33
2023-02-28T13:45:35.993Z,3.33
2023-02-28T13:51:00.714Z,3.92
2023-02-28T13:56:46.164Z,3.60
2023-02-28T14:02:29.735Z,2.95
2023-02-28T14:13:58.490Z,3.17
2023-02-28T14:19:31.019Z,3.33
2023-02-28T14:25:24.757Z,3.80
2023-02-28T14:31:17.704Z,3.73
2023-02-28T14:36:44.427Z,3.67
2023-02-28T14:42:08.959Z,3.63
2023-02-28T14:47:34.851Z,4.10
2023-02-28T14:53:00.197Z,3.13
2023-02-28T14:58:41.191Z,4.25
2023-02-28T15:04:16.410Z,4.60
2023-02-28T15:09:38.956Z,4.67
2023-02-28T15:15:03.588Z,4.47
2023-02-28T15:20:29.638Z,4.08
2023-02-28T15:25:53.913Z,4.25
2023-02-28T15:31:36.181Z,4.55
2023-02-28T15:36:55.264Z,4.55
2023-02-28T15:42:38.863Z,5.83
2023-02-28T15:48:13.735Z,5.08
2023-02-28T15:53:32.244Z,5.00
2023-02-28T15:58:55.624Z,5.33
2023-02-28T16:04:33.454Z,5.13
2023-02-28T16:09:55.924Z,4.60
2023-02-28T16:15:27.529Z,4.50
2023-02-28T16:20:51.232Z,5.10
2023-02-28T16:26:13.994Z,5.07
2023-02-28T16:31:36.695Z,4.92
2023-02-28T16:37:02.309Z,5.30
2023-02-28T16:42:33.851Z,4.57
2023-02-28T16:47:56.286Z,4.87
2023-02-28T16:53:19.104Z,4.80
2023-02-28T16:58:42.212Z,5.53
2023-02-28T17:04:04.771Z,5.17
2023-02-28T17:09:41.981Z,4.97
2023-02-28T17:14:58.587Z,4.07
2023-02-28T17:20:25.284Z,4.35
2023-02-28T17:25:49.594Z,4.62
2023-02-28T17:31:12.123Z,5.08
2023-02-28T17:36:38.187Z,4.95
2023-02-28T17:42:01.950Z,5.93
2023-02-28T17:47:26.337Z,5.73
2023-02-28T17:52:48.922Z,5.97
2023-02-28T17:58:11.777Z,12.10
2023-02-28T18:03:34.740Z,10.38
2023-02-28T18:08:57.831Z,11.90
2023-02-28T18:14:22.066Z,16.45
2023-02-28T18:19:45.425Z,11.10
2023-02-28T18:25:09.502Z,13.57
2023-02-28T18:30:35.302Z,14.00
2023-02-28T18:35:59.942Z,14.40
2023-02-28T18:41:26.595Z,15.35
2023-02-28T18:46:49.677Z,15.70
2023-02-28T18:52:12.749Z,18.27
2023-02-28T18:57:36.116Z,29.90
2023-02-28T19:02:59.076Z,39.25
2023-02-28T19:08:23.343Z,26.93
2023-02-28T19:13:47.226Z,22.87
2023-02-28T19:19:10.719Z,24.63
2023-02-28T19:24:33.836Z,22.70
2023-02-28T19:29:59.724Z,28.17
2023-02-28T19:35:24.539Z,25.57
2023-02-28T19:40:49.158Z,30.90
2023-02-28T19:46:13.725Z,30.63
2023-02-28T19:51:38.538Z,30.80
2023-02-28T19:57:02.324Z,32.80
2023-02-28T20:02:31.851Z,33.37
2023-02-28T20:07:56.222Z,40.77
2023-02-28T20:13:25.745Z,34.03
2023-02-28T20:18:47.221Z,35.00
2023-02-28T20:24:11.828Z,35.38
2023-02-28T20:29:34.935Z,35.37
2023-02-28T20:34:59.608Z,32.30
2023-02-28T20:40:22.862Z,33.93
2023-02-28T20:45:47.445Z,34.50
2023-02-28T20:51:13.197Z,31.82
2023-02-28T20:56:39.514Z,32.70
2023-02-28T21:02:04.403Z,33.02
2023-02-28T21:07:29.321Z,33.63
2023-02-28T21:12:56.133Z,37.37
2023-02-28T21:18:20.467Z,34.97
2023-02-28T21:23:46.584Z,37.93
2023-02-28T21:29:16.653Z,38.55
2023-02-28T21:34:41.975Z,42.77
2023-02-28T21:40:06.315Z,41.27
2023-02-28T21:45:31.596Z,40.47
2023-02-28T21:51:07.586Z,39.37
2023-02-28T21:56:46.561Z,39.03
2023-02-28T22:02:11.040Z,37.13
2023-02-28T22:07:35.368Z,37.00
2023-02-28T22:12:59.463Z,39.30
2023-02-28T22:18:24.232Z,40.90
2023-02-28T22:23:49.843Z,44.67
2023-02-28T22:29:14.481Z,47.23
2023-02-28T22:34:38.868Z,49.00
2023-02-28T22:40:03.594Z,45.10
2023-02-28T22:45:27.932Z,42.37
2023-02-28T22:50:52.741Z,41.57
2023-02-28T22:56:18.079Z,38.73
2023-02-28T23:01:45.246Z,38.33
2023-02-28T23:07:10.642Z,38.93
2023-02-28T23:12:34.323Z,38.27
2023-02-28T23:17:59.399Z,38.10
2023-02-28T23:23:24.137Z,35.55
2023-02-28T23:28:48.767Z,40.05
2023-02-28T23:34:13.564Z,40.80
2023-02-28T23:39:38.820Z,40.37
2023-02-28T23:45:03.528Z,40.65
2023-02-28T23:50:27.391Z,40.12
2023-02-28T23:55:55.995Z,38.50
